Time;durP1;ratioP1;P1;durP2;ratioP2;P2;SDS_P1;SDS_P2;PMS_P1;PMS_P2;Temp;Humidity;BMP_temperature;BMP_pressure;BME280_temperature;BME280_humidity;BME280_pressure;Samples;Min_cycle;Max_cycle;Signal;HPM_P1;HPM_P2
2022/11/21 00:00:14;;;;;;;13.95;3.38;;;;;;;6.20;97.47;96867.44;5005549;28;20557;-55
2022/11/21 00:02:40;;;;;;;16.48;3.10;;;;;;;6.22;97.05;96861.41;5005771;28;20022;-54
2022/11/21 00:05:05;;;;;;;14.18;2.65;;;;;;;5.64;97.58;96857.25;4989403;28;20071;-54
2022/11/21 00:07:30;;;;;;;14.48;3.13;;;;;;;6.41;97.61;96856.13;5006867;28;20042;-55
2022/11/21 00:09:56;;;;;;;22.65;4.25;;;;;;;6.02;97.32;96852.84;5006180;28;20207;-54
2022/11/21 00:12:21;;;;;;;22.08;3.63;;;;;;;6.15;97.26;96848.50;5005700;28;20038;-55
2022/11/21 00:14:46;;;;;;;16.80;2.70;;;;;;;6.07;97.44;96856.28;5005636;28;20045;-56
2022/11/21 00:17:12;;;;;;;25.02;3.70;;;;;;;6.72;97.38;96849.94;5004235;28;20040;-56
2022/11/21 00:19:37;;;;;;;19.42;3.53;;;;;;;7.07;97.19;96846.25;5009257;28;20026;-54
2022/11/21 00:22:02;;;;;;;20.58;3.42;;;;;;;6.59;97.08;96839.69;5005292;28;20098;-55
2022/11/21 00:24:28;;;;;;;24.05;3.70;;;;;;;6.72;96.83;96837.88;5005757;28;20549;-56
2022/11/21 00:26:53;;;;;;;19.55;3.67;;;;;;;6.19;97.13;96845.03;5004277;28;20141;-56
2022/11/21 00:29:19;;;;;;;18.58;3.63;;;;;;;6.43;97.01;96844.09;5006897;28;20021;-57
2022/11/21 00:31:45;;;;;;;18.92;3.50;;;;;;;6.40;96.95;96843.22;5006231;28;20048;-56
2022/11/21 00:34:10;;;;;;;17.75;3.25;;;;;;;6.29;96.82;96833.81;5004321;28;20069;-54
2022/11/21 00:36:35;;;;;;;17.45;2.88;;;;;;;6.82;96.89;96832.63;5003571;28;20044;-55
2022/11/21 00:39:01;;;;;;;17.02;3.35;;;;;;;6.89;97.12;96830.00;5006529;28;20064;-54
2022/11/21 00:41:26;;;;;;;24.75;3.95;;;;;;;6.93;97.10;96828.25;5006964;28;20052;-54
2022/11/21 00:43:51;;;;;;;15.75;2.80;;;;;;;6.85;96.82;96827.44;5005562;28;20033;-54
2022/11/21 00:46:17;;;;;;;15.68;2.60;;;;;;;6.90;97.06;96833.44;5005483;28;20546;-53
2022/11/21 00:48:42;;;;;;;12.07;2.58;;;;;;;7.48;96.84;96827.78;5005868;28;20034;-52
2022/11/21 00:51:07;;;;;;;19.63;3.88;;;;;;;6.75;97.08;96821.47;5006649;28;20049;-55
2022/11/21 00:53:33;;;;;;;17.77;2.83;;;;;;;6.92;96.90;96825.69;5005449;28;20083;-54
2022/11/21 00:55:58;;;;;;;20.95;4.00;;;;;;;7.24;96.93;96827.16;5009468;28;20542;-53
2022/11/21 00:58:23;;;;;;;21.27;4.07;;;;;;;7.35;96.57;96825.31;5005734;28;20033;-54
2022/11/21 01:00:49;;;;;;;12.77;2.97;;;;;;;6.81;96.56;96823.16;5003991;28;20049;-53
2022/11/21 01:03:14;;;;;;;17.67;3.45;;;;;;;7.16;96.45;96815.16;5006112;28;20037;-55
2022/11/21 01:05:39;;;;;;;20.52;3.75;;;;;;;6.98;96.33;96816.16;5004310;28;20030;-54
2022/11/21 01:08:05;;;;;;;15.50;3.55;;;;;;;7.32;96.44;96814.16;5006208;28;20022;-54
2022/11/21 01:10:30;;;;;;;17.83;3.40;;;;;;;7.27;96.46;96811.59;5006161;28;20065;-54
2022/11/21 01:12:56;;;;;;;19.02;2.95;;;;;;;7.81;96.56;96803.31;5006750;28;20024;-54
2022/11/21 01:15:21;;;;;;;18.90;3.38;;;;;;;6.94;96.34;96808.44;5006608;28;20064;-54
2022/11/21 01:17:46;;;;;;;23.98;4.00;;;;;;;6.96;96.72;96807.56;5006894;28;20105;-52
2022/11/21 01:20:12;;;;;;;21.35;3.97;;;;;;;7.06;96.86;96812.66;5004937;28;20064;-54
2022/11/21 01:22:37;;;;;;;21.08;4.07;;;;;;;7.07;96.58;96804.88;5007599;28;20022;-55
2022/11/21 01:25:03;;;;;;;25.35;4.28;;;;;;;7.61;96.50;96811.25;5005564;28;20575;-54
2022/11/21 01:27:28;;;;;;;18.48;3.65;;;;;;;8.24;97.04;96805.38;5009542;28;20500;-52
2022/11/21 01:29:54;;;;;;;29.13;4.57;;;;;;;7.80;96.46;96809.34;5008786;28;20044;-53
2022/11/21 01:32:19;;;;;;;21.27;3.88;;;;;;;7.22;95.84;96803.91;5009031;28;20049;-53
2022/11/21 01:34:44;;;;;;;12.95;2.72;;;;;;;7.72;96.57;96808.56;5009131;28;20120;-54
2022/11/21 01:37:10;;;;;;;18.75;3.35;;;;;;;8.55;96.27;96797.22;5009424;28;20038;-54
2022/11/21 01:39:35;;;;;;;18.98;3.60;;;;;;;8.18;95.66;96796.81;5010528;28;20025;-54
2022/11/21 01:42:00;;;;;;;18.10;3.03;;;;;;;7.90;95.21;96797.16;5009809;28;20037;-53
2022/11/21 01:44:46;;;;;;;15.82;2.83;;;;;;;7.38;95.75;96804.59;5008756;28;20025;-53
2022/11/21 01:47:12;;;;;;;23.20;3.60;;;;;;;7.67;95.48;96800.88;5007120;28;20034;-53
2022/11/21 01:49:39;;;;;;;19.55;3.45;;;;;;;7.37;95.70;96795.13;5009113;28;20041;-53
2022/11/21 01:52:23;;;;;;;16.30;2.97;;;;;;;7.79;95.46;96796.41;5008796;28;20538;-54
2022/11/21 01:54:54;;;;;;;24.33;3.42;;;;;;;8.36;95.12;96789.69;5012020;28;20675;-54
2022/11/21 01:57:27;;;;;;;19.77;3.47;;;;;;;8.80;94.95;96796.84;5008281;28;20508;-53
2022/11/21 02:00:15;;;;;;;22.98;4.00;;;;;;;7.61;95.01;96790.56;5009787;28;20034;-53
2022/11/21 02:02:45;;;;;;;19.95;3.67;;;;;;;7.89;94.96;96792.00;5009768;28;20052;-54
2022/11/21 02:05:16;;;;;;;18.83;3.47;;;;;;;9.22;94.78;96803.94;5008629;28;20029;-54
2022/11/21 02:07:46;;;;;;;14.77;2.83;;;;;;;8.38;94.30;96800.84;5008007;28;20040;-53
2022/11/21 02:10:13;;;;;;;14.77;2.65;;;;;;;8.34;95.30;96791.41;5009482;28;20377;-53
2022/11/21 02:12:44;;;;;;;20.25;3.28;;;;;;;8.21;94.76;96798.50;5009084;28;20022;-52
2022/11/21 02:15:10;;;;;;;15.07;3.10;;;;;;;8.05;94.96;96808.19;5010060;28;20768;-53
2022/11/21 02:17:35;;;;;;;19.10;3.67;;;;;;;7.82;95.48;96804.16;5009591;28;20065;-55
2022/11/21 02:20:07;;;;;;;17.33;3.15;;;;;;;8.11;95.77;96800.34;5008353;28;20128;-54
2022/11/21 02:23:02;;;;;;;16.73;3.20;;;;;;;7.80;95.69;96798.16;5010074;28;20157;-52
2022/11/21 02:25:40;;;;;;;18.77;3.15;;;;;;;7.39;95.72;96805.47;5013925;28;20048;-52
2022/11/21 02:28:08;;;;;;;16.63;3.03;;;;;;;7.20;96.06;96802.19;5009550;28;20029;-55
2022/11/21 02:30:39;;;;;;;24.60;4.25;;;;;;;7.62;96.43;96801.78;5006694;28;20053;-53
2022/11/21 02:33:05;;;;;;;14.02;2.55;;;;;;;7.59;96.26;96810.44;5017552;28;20120;-52
2022/11/21 02:35:32;;;;;;;20.58;3.05;;;;;;;8.08;96.74;96802.97;5006503;28;20538;-54
2022/11/21 02:38:04;;;;;;;21.77;3.60;;;;;;;8.68;96.75;96805.66;5008526;28;20116;-55
2022/11/21 02:40:36;;;;;;;21.10;3.28;;;;;;;7.62;96.05;96802.66;5007410;28;20504;-52
2022/11/21 02:43:09;;;;;;;19.65;3.08;;;;;;;7.93;96.19;96801.44;5008170;28;20026;-53
2022/11/21 02:45:42;;;;;;;14.75;2.40;;;;;;;7.28;96.18;96808.16;5008135;28;20034;-54
2022/11/21 02:48:08;;;;;;;15.13;2.97;;;;;;;7.76;95.76;96802.47;5009395;28;20110;-54
2022/11/21 02:50:38;;;;;;;13.60;2.67;;;;;;;7.94;96.16;96803.13;5009110;28;20034;-54
2022/11/21 02:53:06;;;;;;;21.20;3.72;;;;;;;7.95;95.30;96797.94;5008433;28;20091;-57
2022/11/21 02:55:31;;;;;;;18.05;3.30;;;;;;;7.97;95.63;96797.09;5008057;28;20029;-54
2022/11/21 02:57:57;;;;;;;28.55;4.05;;;;;;;7.59;95.59;96787.16;5007940;28;20040;-54
2022/11/21 03:00:23;;;;;;;13.70;2.33;;;;;;;7.50;95.58;96785.50;5007621;28;20032;-56
2022/11/21 03:02:49;;;;;;;17.17;2.80;;;;;;;7.66;95.65;96778.47;5006813;28;20590;-56
2022/11/21 03:05:17;;;;;;;17.15;2.88;;;;;;;7.63;96.05;96781.06;5005957;28;20149;-53
2022/11/21 03:07:43;;;;;;;21.83;2.83;;;;;;;7.80;96.09;96791.22;5008056;28;20660;-54
2022/11/21 03:10:09;;;;;;;25.35;3.78;;;;;;;8.13;96.26;96788.22;5007999;28;20032;-54
2022/11/21 03:12:38;;;;;;;17.55;2.88;;;;;;;8.59;96.47;96775.56;5009298;28;20030;-55
2022/11/21 03:15:06;;;;;;;22.38;3.65;;;;;;;8.96;95.46;96763.75;5006390;28;20026;-54
2022/11/21 03:17:32;;;;;;;19.55;3.20;;;;;;;8.53;94.61;96779.09;5008577;28;20083;-54
2022/11/21 03:19:57;;;;;;;12.15;2.22;;;;;;;8.15;94.43;96776.13;5008635;28;20707;-54
2022/11/21 03:22:23;;;;;;;18.05;3.03;;;;;;;8.10;94.76;96779.66;5007428;28;20062;-54
2022/11/21 03:24:49;;;;;;;15.93;2.70;;;;;;;8.90;94.43;96775.06;5008648;28;20029;-54
2022/11/21 03:27:14;;;;;;;23.55;3.20;;;;;;;8.28;93.45;96771.63;5007642;28;20046;-56
2022/11/21 03:29:39;;;;;;;19.00;3.33;;;;;;;7.96;94.64;96770.34;5009622;28;20017;-54
2022/11/21 03:32:05;;;;;;;16.02;2.97;;;;;;;7.33;94.76;96772.75;5023513;28;20077;-54
2022/11/21 03:34:30;;;;;;;22.27;3.15;;;;;;;7.31;95.42;96769.31;5007687;28;20056;-53
2022/11/21 03:36:55;;;;;;;16.42;3.20;;;;;;;7.16;95.33;96778.06;5007813;28;20034;-53
2022/11/21 03:39:21;;;;;;;20.00;3.38;;;;;;;7.90;95.81;96773.84;5006735;28;20029;-53
2022/11/21 03:41:46;;;;;;;17.55;3.28;;;;;;;7.59;95.31;96768.16;5008160;28;20044;-55
2022/11/21 03:44:12;;;;;;;14.30;2.40;;;;;;;8.68;95.32;96772.81;5008796;28;20034;-54
2022/11/21 03:46:41;;;;;;;19.15;3.20;;;;;;;7.33;95.32;96770.16;4996504;28;20140;-55
2022/11/21 03:49:07;;;;;;;17.55;3.15;;;;;;;7.23;95.86;96773.69;4986446;28;20044;-55
2022/11/21 03:51:33;;;;;;;23.13;3.40;;;;;;;7.45;96.18;96773.50;4997044;28;20602;-54
2022/11/21 03:53:59;;;;;;;16.27;2.70;;;;;;;8.10;95.15;96767.56;5007617;28;20034;-53
2022/11/21 03:56:25;;;;;;;15.43;2.60;;;;;;;7.54;95.05;96763.06;5008970;28;20125;-54
2022/11/21 03:58:50;;;;;;;15.32;2.95;;;;;;;7.98;95.37;96760.78;5005341;28;20171;-53
2022/11/21 04:01:16;;;;;;;14.07;2.55;;;;;;;7.35;95.70;96768.41;5006883;28;20134;-54
2022/11/21 04:03:42;;;;;;;23.85;3.75;;;;;;;7.62;96.32;96773.31;5005746;28;20121;-54
2022/11/21 04:06:09;;;;;;;17.27;2.80;;;;;;;7.50;95.94;96771.72;5007406;28;20903;-53
2022/11/21 04:08:34;;;;;;;20.58;2.95;;;;;;;7.69;95.95;96757.69;5005836;28;20025;-54
2022/11/21 04:11:00;;;;;;;18.20;2.85;;;;;;;7.45;96.10;96755.41;5006148;28;20634;-54
2022/11/21 04:13:25;;;;;;;19.50;2.90;;;;;;;7.71;96.43;96756.84;5008839;28;20346;-54
2022/11/21 04:15:51;;;;;;;19.88;3.22;;;;;;;8.38;96.17;96754.22;5006006;28;20030;-54
2022/11/21 04:18:16;;;;;;;14.35;2.80;;;;;;;8.26;96.21;96752.69;5009494;28;20060;-54
2022/11/21 04:20:42;;;;;;;24.35;3.15;;;;;;;8.19;95.92;96749.31;5006005;28;20171;-54
2022/11/21 04:23:07;;;;;;;17.08;3.17;;;;;;;8.48;96.43;96731.63;5021915;28;20056;-56
2022/11/21 04:25:33;;;;;;;17.90;3.03;;;;;;;8.14;95.88;96742.47;5007055;28;20026;-54
2022/11/21 04:28:00;;;;;;;22.73;3.28;;;;;;;7.85;96.03;96734.22;5022652;28;20733;-54
2022/11/21 04:30:26;;;;;;;14.25;2.60;;;;;;;8.06;96.11;96737.41;5005953;28;20037;-55
2022/11/21 04:32:52;;;;;;;12.02;2.10;;;;;;;8.21;96.34;96736.34;5009181;28;20026;-56
2022/11/21 04:35:18;;;;;;;18.05;3.15;;;;;;;8.06;96.01;96729.66;5006160;28;20036;-54
2022/11/21 04:37:43;;;;;;;17.27;3.25;;;;;;;8.64;96.09;96732.28;5005842;28;20017;-54
2022/11/21 04:40:09;;;;;;;23.65;3.70;;;;;;;7.60;95.77;96731.06;5006186;28;20053;-56
2022/11/21 04:42:35;;;;;;;16.15;2.72;;;;;;;7.30;96.31;96721.06;5007133;28;20026;-54
2022/11/21 04:45:00;;;;;;;16.50;2.63;;;;;;;7.91;95.45;96721.19;5005726;28;20060;-54
2022/11/21 04:47:25;;;;;;;17.38;2.67;;;;;;;7.69;95.27;96730.97;5004373;28;20702;-53
2022/11/21 04:49:51;;;;;;;20.17;3.50;;;;;;;7.37;95.78;96722.72;5006704;28;20454;-55
2022/11/21 04:52:16;;;;;;;20.67;3.25;;;;;;;7.82;95.75;96739.44;5007049;28;20037;-53
2022/11/21 04:54:42;;;;;;;18.70;3.05;;;;;;;8.32;96.22;96725.84;5009241;28;20033;-54
2022/11/21 04:57:07;;;;;;;15.45;2.85;;;;;;;8.04;95.32;96727.06;5004712;28;20050;-56
2022/11/21 04:59:33;;;;;;;16.65;2.58;;;;;;;8.06;96.01;96732.25;5004271;28;20044;-55
2022/11/21 05:01:58;;;;;;;17.02;2.97;;;;;;;7.12;95.71;96741.06;5007031;28;20587;-54
2022/11/21 05:04:23;;;;;;;14.75;2.70;;;;;;;8.44;96.19;96735.16;5006491;28;20523;-54
2022/11/21 05:06:49;;;;;;;19.40;2.80;;;;;;;7.72;95.99;96735.25;5006730;28;20033;-54
2022/11/21 05:09:14;;;;;;;21.85;3.08;;;;;;;7.26;96.17;96733.16;5005736;28;20033;-55
2022/11/21 05:14:25;;;;;;;14.57;2.53;;;;;;;7.46;96.35;96726.06;5006987;28;20109;-55
2022/11/21 05:16:51;;;;;;;17.00;2.70;;;;;;;8.10;96.42;96733.91;5007367;28;20057;-54
2022/11/21 05:19:16;;;;;;;24.45;4.05;;;;;;;7.80;95.55;96739.44;5007265;28;20051;-55
2022/11/21 05:21:41;;;;;;;23.77;5.28;;;;;;;7.16;96.29;96740.16;5004960;28;20042;-54
2022/11/21 05:24:07;;;;;;;17.60;2.88;;;;;;;7.48;96.50;96747.59;5007224;28;20113;-53
2022/11/21 05:26:32;;;;;;;25.85;3.90;;;;;;;7.27;96.61;96744.34;5005219;28;20041;-55
2022/11/21 05:28:57;;;;;;;19.73;3.90;;;;;;;7.65;97.08;96740.50;5008387;28;20030;-56
2022/11/21 05:31:23;;;;;;;17.33;3.33;;;;;;;8.40;97.15;96739.53;5005719;28;20037;-54
2022/11/21 05:33:48;;;;;;;19.15;3.05;;;;;;;5.42;97.62;96746.41;5005106;28;20458;-53
2022/11/21 05:36:14;;;;;;;21.85;3.30;;;;;;;4.88;98.50;96753.34;5007398;28;20095;-53
2022/11/21 05:38:39;;;;;;;25.27;4.05;;;;;;;4.66;99.40;96755.94;5006472;28;20033;-54
2022/11/21 05:41:04;;;;;;;28.05;4.07;;;;;;;4.62;99.53;96761.06;5004344;28;20054;-54
2022/11/21 05:43:45;;;;;;;15.10;2.72;;;;;;;4.47;99.88;96759.34;5006416;28;20026;-54
2022/11/21 05:46:22;;;;;;;27.27;3.67;;;;;;;5.26;100.00;96756.72;5004840;28;20042;-57
2022/11/21 05:48:49;;;;;;;30.27;3.83;;;;;;;4.62;100.00;96772.25;5006378;28;20022;-57
2022/11/21 05:51:15;;;;;;;23.60;3.25;;;;;;;4.58;100.00;96765.38;5007113;28;20480;-54
2022/11/21 05:53:40;;;;;;;20.55;3.15;;;;;;;4.98;100.00;96764.53;5005841;28;20043;-54
2022/11/21 05:56:09;;;;;;;33.90;4.22;;;;;;;5.22;100.00;96762.75;5004094;28;20042;-55
2022/11/21 05:58:34;;;;;;;19.23;2.95;;;;;;;5.39;99.89;96772.19;5006586;28;20061;-54
2022/11/21 06:01:00;;;;;;;21.75;3.05;;;;;;;5.19;99.54;96768.78;5003565;28;20238;-54
2022/11/21 06:03:31;;;;;;;17.20;2.47;;;;;;;5.30;99.43;96766.19;5006066;28;20032;-54
2022/11/21 06:06:03;;;;;;;17.35;2.95;;;;;;;4.53;99.64;96778.22;5007330;28;20037;-56
2022/11/21 06:08:32;;;;;;;22.15;3.22;;;;;;;4.28;100.00;96783.31;5004260;28;20018;-53
2022/11/21 06:10:57;;;;;;;21.73;3.10;;;;;;;4.23;100.00;96769.59;5005016;28;20500;-56
2022/11/21 06:13:22;;;;;;;24.35;3.35;;;;;;;4.73;100.00;96781.69;5005691;28;20037;-55
2022/11/21 06:15:52;;;;;;;22.63;3.05;;;;;;;4.90;99.73;96776.53;5008233;28;20054;-55
2022/11/21 06:18:18;;;;;;;24.27;3.33;;;;;;;5.06;99.77;96773.06;5010794;28;20040;-55
2022/11/21 06:20:44;;;;;;;17.33;2.67;;;;;;;5.20;99.41;96773.06;5008853;28;20037;-56
2022/11/21 06:23:11;;;;;;;16.00;2.65;;;;;;;5.47;99.62;96775.59;5008665;28;20063;-55
2022/11/21 06:25:36;;;;;;;19.98;3.10;;;;;;;5.29;99.50;96774.78;5007725;28;20034;-54
2022/11/21 06:28:01;;;;;;;22.27;3.50;;;;;;;5.59;99.36;96783.31;5009086;28;20030;-56
2022/11/21 06:30:27;;;;;;;21.52;3.00;;;;;;;5.72;98.92;96772.94;5007349;28;20038;-58
2022/11/21 06:32:52;;;;;;;16.80;2.90;;;;;;;5.58;98.91;96779.00;5009845;28;20029;-54
2022/11/21 06:35:17;;;;;;;21.55;3.30;;;;;;;6.11;99.05;96781.41;5010334;28;20036;-57
2022/11/21 06:37:43;;;;;;;27.40;3.75;;;;;;;6.56;99.44;96774.25;5010119;28;20026;-54
2022/11/21 06:40:09;;;;;;;19.67;3.35;;;;;;;6.89;99.29;96767.13;5008490;28;20546;-54
2022/11/21 06:42:34;;;;;;;21.25;3.55;;;;;;;6.44;99.10;96773.47;5009805;28;20026;-54
2022/11/21 06:44:59;;;;;;;17.50;2.80;;;;;;;6.41;98.91;96783.81;5010417;28;20033;-54
2022/11/21 06:47:25;;;;;;;17.45;2.65;;;;;;;6.21;98.92;96782.22;5007680;28;20124;-54
2022/11/21 06:49:50;;;;;;;25.10;3.72;;;;;;;7.08;98.78;96780.75;5007279;28;20034;-54
2022/11/21 06:52:15;;;;;;;19.05;2.92;;;;;;;6.99;99.43;96783.41;5009729;28;20037;-55
2022/11/21 06:54:41;;;;;;;23.67;3.60;;;;;;;6.67;99.14;96787.09;5009288;28;20022;-54
2022/11/21 06:57:06;;;;;;;21.52;3.35;;;;;;;6.62;99.13;96781.97;5007713;28;20424;-54
2022/11/21 06:59:31;;;;;;;20.48;3.33;;;;;;;7.52;99.11;96788.06;5008647;28;20446;-55
2022/11/21 07:01:57;;;;;;;20.25;3.35;;;;;;;6.99;98.98;96783.41;5010268;28;20966;-55
2022/11/21 07:04:22;;;;;;;20.58;3.17;;;;;;;6.89;98.82;96785.22;5008710;28;20377;-56
2022/11/21 07:06:47;;;;;;;21.02;3.22;;;;;;;6.23;98.75;96790.81;5007845;28;20045;-54
2022/11/21 07:09:13;;;;;;;21.40;3.08;;;;;;;6.76;98.58;96787.03;5009629;28;20137;-54
2022/11/21 07:11:38;;;;;;;17.15;2.83;;;;;;;7.15;98.92;96790.16;5008301;28;20053;-55
2022/11/21 07:14:03;;;;;;;22.02;3.63;;;;;;;7.07;99.27;96780.75;5008194;28;20112;-56
2022/11/21 07:16:31;;;;;;;17.45;2.90;;;;;;;7.18;99.87;96788.41;5010093;28;20045;-56
2022/11/21 07:18:56;;;;;;;17.73;2.95;;;;;;;7.20;99.98;96800.44;5008897;28;20108;-56
2022/11/21 07:21:22;;;;;;;19.77;3.05;;;;;;;6.88;99.60;96799.88;5007824;28;20041;-55
2022/11/21 07:23:47;;;;;;;14.73;2.33;;;;;;;6.74;99.60;96796.53;5008066;28;20060;-56
2022/11/21 07:26:13;;;;;;;26.33;3.92;;;;;;;6.80;99.87;96795.63;5007453;28;20131;-55
2022/11/21 07:28:38;;;;;;;16.17;2.70;;;;;;;7.35;100.00;96801.19;5008632;28;20559;-55
2022/11/21 07:31:04;;;;;;;18.80;3.25;;;;;;;7.00;100.00;96800.63;5007714;28;20060;-56
2022/11/21 07:33:29;;;;;;;15.25;2.45;;;;;;;7.62;100.00;96806.97;5008057;28;20105;-55
2022/11/21 07:35:58;;;;;;;15.80;2.88;;;;;;;7.79;100.00;96797.28;5007443;28;20571;-55
2022/11/21 07:38:25;;;;;;;17.50;3.33;;;;;;;8.05;100.00;96805.59;5006722;28;20026;-54
2022/11/21 07:40:50;;;;;;;19.05;3.03;;;;;;;7.35;100.00;96811.53;5005975;28;20049;-55
2022/11/21 07:43:16;;;;;;;22.98;3.95;;;;;;;7.23;100.00;96797.84;5006010;28;20030;-54
2022/11/21 07:45:41;;;;;;;16.85;3.25;;;;;;;7.77;99.89;96798.16;5005773;28;20041;-54
2022/11/21 07:48:08;;;;;;;20.08;3.78;;;;;;;8.55;100.00;96800.69;5006515;28;20025;-56
2022/11/21 07:50:34;;;;;;;20.00;3.35;;;;;;;8.02;100.00;96803.91;5005045;28;20037;-54
2022/11/21 07:53:01;;;;;;;16.80;4.13;;;;;;;8.52;100.00;96797.22;5007399;28;20024;-55
2022/11/21 07:55:28;;;;;;;22.38;3.58;;;;;;;7.33;100.00;96798.63;5005071;28;20280;-57
2022/11/21 07:58:01;;;;;;;23.55;3.53;;;;;;;7.57;100.00;96807.00;5009254;28;20026;-55
2022/11/21 08:00:29;;;;;;;19.15;3.45;;;;;;;8.06;100.00;96810.75;5005946;28;20037;-55
2022/11/21 08:02:54;;;;;;;23.23;3.45;;;;;;;7.73;100.00;96815.47;5008401;28;20033;-55
2022/11/21 08:05:20;;;;;;;17.83;3.42;;;;;;;7.40;100.00;96818.41;5006506;28;20833;-57
2022/11/21 08:07:45;;;;;;;21.35;3.22;;;;;;;7.21;99.86;96822.00;5009380;28;20026;-55
2022/11/21 08:10:11;;;;;;;20.88;3.80;;;;;;;7.87;99.87;96828.25;5024504;28;20030;-54
2022/11/21 08:12:36;;;;;;;14.70;2.47;;;;;;;7.76;100.00;96822.34;5004705;28;20654;-55
2022/11/21 08:15:03;;;;;;;17.27;3.65;;;;;;;7.47;99.93;96816.59;5009027;28;20037;-56
2022/11/21 08:17:29;;;;;;;17.42;3.28;;;;;;;7.40;99.67;96827.88;5006877;28;20035;-54
2022/11/21 08:19:54;;;;;;;25.63;4.30;;;;;;;7.90;99.73;96819.56;5007052;28;20033;-55
2022/11/21 08:22:19;;;;;;;23.08;3.85;;;;;;;7.63;100.00;96827.66;5005795;28;20038;-54
2022/11/21 08:24:45;;;;;;;24.40;4.15;;;;;;;7.32;100.00;96824.50;5008720;28;20065;-55
2022/11/21 08:27:10;;;;;;;22.67;3.95;;;;;;;7.79;100.00;96827.47;5005597;28;20041;-54
2022/11/21 08:29:35;;;;;;;20.67;3.70;;;;;;;8.64;100.00;96819.56;5006572;28;20090;-56
2022/11/21 08:32:01;;;;;;;24.50;4.20;;;;;;;8.68;100.00;96824.66;5004989;28;20042;-55
2022/11/21 08:34:26;;;;;;;18.70;3.75;;;;;;;8.71;100.00;96827.22;5007085;28;20554;-56
2022/11/21 08:36:52;;;;;;;15.38;3.28;;;;;;;8.58;100.00;96821.34;5006889;28;20484;-57
2022/11/21 08:39:17;;;;;;;20.77;3.80;;;;;;;9.06;100.00;96809.38;5008511;28;20431;-57
2022/11/21 08:44:27;;;;;;;12.98;2.72;;;;;;;10.44;100.00;96804.22;5005918;28;20733;-54
2022/11/21 08:46:53;;;;;;;16.25;3.00;;;;;;;9.06;100.00;96811.13;5005281;28;20041;-60
2022/11/21 08:49:18;;;;;;;21.58;3.78;;;;;;;8.83;100.00;96813.22;5005258;28;20033;-55
2022/11/21 08:51:48;;;;;;;16.35;3.40;;;;;;;9.86;100.00;96802.78;5006196;28;20590;-54
2022/11/21 08:54:14;;;;;;;16.42;2.90;;;;;;;9.07;100.00;96820.63;5006530;28;20621;-54
2022/11/21 08:56:39;;;;;;;18.77;2.85;;;;;;;8.84;100.00;96822.69;5004509;28;20033;-54
2022/11/21 08:59:04;;;;;;;18.90;3.90;;;;;;;9.05;99.98;96820.66;5004297;28;20056;-54
2022/11/21 09:01:30;;;;;;;25.05;3.88;;;;;;;9.46;100.00;96812.19;5006173;28;20045;-53
2022/11/21 09:03:55;;;;;;;12.80;3.15;;;;;;;10.61;100.00;96812.53;5005637;28;20038;-56
2022/11/21 09:06:21;;;;;;;14.77;3.28;;;;;;;10.53;99.74;96814.44;5005603;28;20096;-53
2022/11/21 09:08:46;;;;;;;18.58;3.60;;;;;;;10.68;99.26;96821.91;5005809;28;20038;-55
2022/11/21 09:11:11;;;;;;;19.63;4.20;;;;;;;10.34;97.64;96821.75;5005965;28;20083;-54
2022/11/21 09:13:36;;;;;;;16.25;3.47;;;;;;;9.94;96.87;96824.28;5009670;28;20040;-53
2022/11/21 09:18:47;;;;;;;20.10;4.35;;;;;;;10.12;95.88;96820.47;5005725;28;20044;-54
2022/11/21 09:21:17;;;;;;;20.00;4.00;;;;;;;10.19;95.45;96823.78;5005467;28;20040;-54
2022/11/21 09:23:43;;;;;;;23.38;4.53;;;;;;;10.78;97.17;96827.75;5006755;28;20100;-53
2022/11/21 09:26:08;;;;;;;18.70;4.07;;;;;;;9.84;92.19;96831.38;5005204;28;20129;-56
2022/11/21 09:28:34;;;;;;;18.83;4.60;;;;;;;9.58;91.95;96824.94;5007181;28;20377;-54
2022/11/21 09:31:01;;;;;;;25.85;5.07;;;;;;;10.49;96.16;96818.00;5007504;28;20056;-55
2022/11/21 09:33:26;;;;;;;16.73;4.53;;;;;;;10.74;95.24;96825.25;5007326;28;20725;-54
2022/11/21 09:35:52;;;;;;;22.60;4.55;;;;;;;10.92;95.09;96827.41;5005697;28;20049;-53
2022/11/21 09:38:17;;;;;;;19.33;4.47;;;;;;;10.90;94.24;96820.56;5006930;28;20958;-54
2022/11/21 09:40:46;;;;;;;16.23;4.78;;;;;;;11.65;94.82;96826.53;5004392;28;20091;-55
2022/11/21 09:43:37;;;;;;;21.52;5.10;;;;;;;11.05;90.53;96829.72;5006110;28;20029;-55
2022/11/21 09:46:09;;;;;;;19.23;4.00;;;;;;;9.67;83.87;96828.25;5007072;28;20034;-54
2022/11/21 09:48:47;;;;;;;21.15;4.10;;;;;;;10.14;88.89;96830.84;5005510;28;20038;-54
2022/11/21 09:51:15;;;;;;;24.15;4.50;;;;;;;10.18;89.18;96831.63;5009299;28;20739;-54
2022/11/21 09:54:01;;;;;;;18.70;3.90;;;;;;;10.69;91.44;96827.94;5008677;28;20061;-55
2022/11/21 09:56:32;;;;;;;18.38;4.18;;;;;;;10.90;92.40;96830.94;5009748;28;20040;-55
2022/11/21 09:59:33;;;;;;;16.88;3.95;;;;;;;10.90;92.25;96830.94;5009325;28;20072;-53
2022/11/21 10:01:58;;;;;;;16.15;4.30;;;;;;;10.52;89.98;96834.41;5006599;28;20915;-53
2022/11/21 10:04:25;;;;;;;18.20;4.38;;;;;;;10.82;92.21;96831.13;5010268;28;20036;-53
2022/11/21 10:07:05;;;;;;;19.83;4.07;;;;;;;9.95;85.29;96830.34;5008637;28;20396;-55
2022/11/21 10:09:49;;;;;;;23.05;5.32;;;;;;;11.29;91.99;96833.47;5008073;28;20491;-55
2022/11/21 10:12:36;;;;;;;21.13;4.13;;;;;;;11.58;93.04;96837.09;5008500;28;20061;-54
2022/11/21 10:15:26;;;;;;;17.15;4.20;;;;;;;11.22;92.58;96834.53;5011069;28;20048;-55
2022/11/21 10:18:00;;;;;;;16.55;3.90;;;;;;;11.35;89.11;96829.03;5010186;28;20045;-54
2022/11/21 10:20:44;;;;;;;21.88;4.47;;;;;;;10.99;89.18;96832.50;5007914;28;20037;-56
2022/11/21 10:23:18;;;;;;;15.50;3.53;;;;;;;10.74;91.35;96812.25;5009420;28;20076;-55
2022/11/21 10:26:10;;;;;;;18.50;4.57;;;;;;;10.38;84.61;96819.06;5007569;28;20611;-53
2022/11/21 10:28:51;;;;;;;23.45;4.75;;;;;;;10.57;84.27;96810.88;5009207;28;20083;-57
2022/11/21 10:31:18;;;;;;;19.58;4.60;;;;;;;10.13;79.34;96809.19;5008270;28;20053;-54
2022/11/21 10:33:44;;;;;;;19.15;4.07;;;;;;;10.39;87.32;96801.72;5008863;28;20026;-55
2022/11/21 10:36:24;;;;;;;21.95;4.57;;;;;;;10.09;84.26;96807.53;5008983;28;20047;-56
2022/11/21 10:38:54;;;;;;;22.60;4.80;;;;;;;11.04;92.60;96802.88;5008606;28;20120;-54
2022/11/21 10:41:37;;;;;;;22.75;5.03;;;;;;;10.10;83.62;96798.84;5009314;28;20852;-55
2022/11/21 10:47:00;;;;;;;16.95;4.05;;;;;;;10.06;84.75;96799.78;5008394;28;20044;-54
2022/11/21 10:49:28;;;;;;;20.05;4.38;;;;;;;10.06;88.25;96796.34;5007883;28;20029;-56
2022/11/21 10:52:15;;;;;;;22.13;4.82;;;;;;;10.90;93.28;96787.59;5008817;28;20053;-54
2022/11/21 10:55:01;;;;;;;17.88;4.40;;;;;;;9.73;84.71;96792.66;5009369;28;20061;-55
2022/11/21 10:57:30;;;;;;;17.75;4.00;;;;;;;10.26;92.09;96803.72;5008473;28;20522;-53
2022/11/21 11:00:01;;;;;;;17.70;4.55;;;;;;;9.93;84.61;96803.53;5010000;28;20026;-55
2022/11/21 11:02:27;;;;;;;18.77;4.30;;;;;;;10.19;86.23;96797.81;5008810;28;20535;-53
2022/11/21 11:05:17;;;;;;;15.95;3.60;;;;;;;10.65;81.71;96792.53;5008765;28;20539;-53
2022/11/21 11:08:03;;;;;;;19.13;4.38;;;;;;;11.14;79.27;96800.88;5008810;28;20041;-54
2022/11/21 11:10:29;;;;;;;16.65;3.47;;;;;;;12.00;85.83;96788.25;5007568;28;20041;-54
2022/11/21 11:15:53;;;;;;;19.75;4.32;;;;;;;11.73;85.55;96785.50;5007880;28;20036;-54
2022/11/21 11:18:22;;;;;;;23.90;4.90;;;;;;;12.75;91.54;96791.28;5009053;28;20030;-54
2022/11/21 11:20:48;;;;;;;16.00;3.65;;;;;;;12.57;80.25;96783.13;5006808;28;20037;-55
2022/11/21 11:23:26;;;;;;;19.23;4.53;;;;;;;13.01;85.96;96776.53;5008604;28;20034;-56
2022/11/21 11:25:53;;;;;;;19.10;3.92;;;;;;;14.30;86.30;96768.63;5008802;28;20037;-56
2022/11/21 11:28:19;;;;;;;19.73;4.45;;;;;;;13.55;85.70;96768.69;5010449;28;20029;-54
2022/11/21 11:30:46;;;;;;;16.17;3.60;;;;;;;12.37;85.00;96765.50;5007593;28;20033;-56
2022/11/21 11:33:33;;;;;;;13.52;2.83;;;;;;;11.59;75.18;96762.44;5007926;28;20026;-55
2022/11/21 11:36:18;;;;;;;11.02;2.42;;;;;;;12.98;84.92;96758.38;5007260;28;20041;-55
2022/11/21 11:38:58;;;;;;;17.52;3.85;;;;;;;12.21;73.86;96757.28;5007566;28;20048;-54
2022/11/21 11:47:53;;;;;;;17.92;3.85;;;;;;;11.56;80.84;96759.91;5007491;28;20075;-57
2022/11/21 11:50:29;;;;;;;19.52;3.97;;;;;;;11.30;77.47;96759.72;5006908;28;20030;-55
2022/11/21 11:53:21;;;;;;;20.58;4.90;;;;;;;11.26;77.52;96752.03;5006890;28;20683;-55
2022/11/21 11:56:04;;;;;;;20.77;4.32;;;;;;;11.48;86.74;96736.72;5007147;28;20045;-54